createdAt,value
2022-08-05T00:00:16.288Z,100778.16
2022-08-05T00:02:51.337Z,100778.78
2022-08-05T00:06:02.867Z,100775.00
2022-08-05T00:08:19.769Z,100765.34
2022-08-05T00:11:02.693Z,100771.16
2022-08-05T00:13:39.084Z,100771.47
2022-08-05T00:16:10.833Z,100769.06
2022-08-05T00:18:41.101Z,100768.69
2022-08-05T00:21:09.606Z,100771.75
2022-08-05T00:23:46.250Z,100761.69
2022-08-05T00:26:21.049Z,100761.06
2022-08-05T00:28:52.065Z,100755.66
2022-08-05T00:31:53.427Z,100765.38
2022-08-05T00:34:55.925Z,100763.41
2022-08-05T00:37:09.802Z,100758.72
2022-08-05T00:39:44.030Z,100755.41
2022-08-05T00:42:31.515Z,100756.38
2022-08-05T00:44:59.662Z,100752.22
2022-08-05T00:47:53.200Z,100760.75
2022-08-05T00:50:15.211Z,100757.00
2022-08-05T00:52:42.362Z,100755.22
2022-08-05T00:55:12.693Z,100749.38
2022-08-05T00:57:55.488Z,100754.88
2022-08-05T01:00:30.370Z,100752.44
2022-08-05T01:02:59.695Z,100757.09
2022-08-05T01:05:27.828Z,100740.47
2022-08-05T01:08:42.112Z,100746.34
2022-08-05T01:10:52.896Z,100743.38
2022-08-05T01:13:58.967Z,100732.34
2022-08-05T01:16:31.892Z,100736.00
2022-08-05T01:19:01.557Z,100735.84
2022-08-05T01:21:45.894Z,100738.00
2022-08-05T01:24:23.844Z,100732.44
2022-08-05T01:26:53.973Z,100730.59
2022-08-05T01:29:45.589Z,100729.50
2022-08-05T01:32:18.670Z,100725.63
2022-08-05T01:34:48.594Z,100728.19
2022-08-05T01:37:24.523Z,100720.81
2022-08-05T01:39:54.971Z,100720.13
2022-08-05T01:42:27.779Z,100721.91
2022-08-05T01:44:56.830Z,100720.44
2022-08-05T01:47:38.959Z,100725.81
2022-08-05T01:50:29.372Z,100715.34
2022-08-05T01:53:00.061Z,100712.28
2022-08-05T01:55:28.713Z,100712.44
2022-08-05T01:58:11.775Z,100716.19
2022-08-05T02:00:49.510Z,100716.97
2022-08-05T02:03:29.279Z,100715.59
2022-08-05T02:06:03.609Z,100716.38
2022-08-05T02:08:58.294Z,100717.00
2022-08-05T02:11:33.259Z,100723.72
2022-08-05T02:14:05.312Z,100716.63
2022-08-05T02:16:41.709Z,100710.16
2022-08-05T02:19:18.910Z,100714.09
2022-08-05T02:21:59.562Z,100715.69
2022-08-05T02:24:28.399Z,100716.47
2022-08-05T02:27:00.134Z,100719.63
2022-08-05T02:29:59.496Z,100715.72
2022-08-05T02:32:31.400Z,100714.66
2022-08-05T02:35:01.969Z,100717.47
2022-08-05T02:37:38.742Z,100715.69
2022-08-05T02:40:07.019Z,100724.47
2022-08-05T02:42:37.733Z,100710.34
2022-08-05T02:45:07.045Z,100710.75
2022-08-05T02:48:06.506Z,100715.72
2022-08-05T02:50:24.761Z,100718.94
2022-08-05T02:52:52.747Z,100719.44
2022-08-05T02:55:52.123Z,100717.88
2022-08-05T02:58:11.717Z,100717.03
2022-08-05T03:00:41.095Z,100724.25
2022-08-05T03:03:15.453Z,100718.94
2022-08-05T03:06:55.567Z,100718.78
2022-08-05T03:08:31.743Z,100714.31
2022-08-05T03:11:41.277Z,100709.22
2022-08-05T03:13:51.036Z,100712.72
2022-08-05T03:16:29.443Z,100708.69
2022-08-05T03:18:59.753Z,100700.59
2022-08-05T03:21:28.893Z,100709.72
2022-08-05T03:24:00.753Z,100717.00
2022-08-05T03:26:32.325Z,100715.44
2022-08-05T03:28:59.906Z,100715.78
2022-08-05T03:31:55.651Z,100713.22
2022-08-05T03:34:15.135Z,100711.00
2022-08-05T03:36:42.684Z,100711.59
2022-08-05T03:39:12.961Z,100720.72
2022-08-05T03:41:47.089Z,100722.25
2022-08-05T03:44:19.957Z,100720.44
2022-08-05T03:46:47.597Z,100722.03
2022-08-05T03:49:16.698Z,100717.22
2022-08-05T03:52:48.602Z,100708.63
2022-08-05T03:55:50.145Z,100705.50
2022-08-05T03:57:41.328Z,100716.44
2022-08-05T04:00:11.621Z,100715.44
2022-08-05T04:02:51.932Z,100706.28
2022-08-05T04:05:19.934Z,100715.44
2022-08-05T04:07:57.181Z,100714.72
2022-08-05T04:10:27.729Z,100716.34
2022-08-05T04:12:59.023Z,100708.78
2022-08-05T04:15:32.722Z,100707.19
2022-08-05T04:18:06.645Z,100711.34
2022-08-05T04:20:35.094Z,100702.31
2022-08-05T04:23:02.834Z,100712.75
2022-08-05T04:25:56.693Z,100704.03
2022-08-05T04:28:18.371Z,100704.38
2022-08-05T04:30:45.787Z,100703.25
2022-08-05T04:33:13.504Z,100710.66
2022-08-05T04:36:10.725Z,100702.34
2022-08-05T04:38:39.160Z,100706.50
2022-08-05T04:41:09.463Z,100703.75
2022-08-05T04:43:40.684Z,100704.63
2022-08-05T04:46:14.336Z,100706.28
2022-08-05T04:48:58.731Z,100702.75
2022-08-05T04:51:26.175Z,100710.63
2022-08-05T04:53:58.345Z,100709.19
2022-08-05T04:56:35.096Z,100707.59
2022-08-05T04:59:21.681Z,100707.56
2022-08-05T05:02:35.240Z,100701.78
2022-08-05T05:04:43.979Z,100699.53
2022-08-05T05:07:17.183Z,100704.81
2022-08-05T05:09:45.332Z,100699.56
2022-08-05T05:12:12.466Z,100702.16
2022-08-05T05:14:49.549Z,100703.72
2022-08-05T05:17:23.446Z,100703.19
2022-08-05T05:19:55.155Z,100694.16
2022-08-05T05:22:26.378Z,100699.56
2022-08-05T05:24:59.055Z,100703.81
2022-08-05T05:27:44.586Z,100710.69
2022-08-05T05:30:29.533Z,100711.78
2022-08-05T05:33:00.531Z,100716.38
2022-08-05T05:35:34.159Z,100714.81
2022-08-05T05:38:09.160Z,100711.09
2022-08-05T05:40:42.415Z,100713.53
2022-08-05T05:43:15.105Z,100717.00
2022-08-05T05:45:49.660Z,100715.13
2022-08-05T05:48:16.877Z,100720.41
2022-08-05T05:50:44.643Z,100711.16
2022-08-05T05:53:21.215Z,100710.13
2022-08-05T05:55:52.429Z,100707.44
2022-08-05T05:58:31.428Z,100710.78
2022-08-05T06:01:04.892Z,100706.19
2022-08-05T06:04:01.138Z,100706.50
2022-08-05T06:06:30.953Z,100715.59
2022-08-05T06:08:58.719Z,100710.31
2022-08-05T06:11:26.021Z,100704.59
2022-08-05T06:13:53.973Z,100710.19
2022-08-05T06:16:31.067Z,100709.78
2022-08-05T06:19:01.157Z,100711.53
2022-08-05T06:21:36.707Z,100710.22
2022-08-05T06:24:11.273Z,100715.59
2022-08-05T06:26:38.909Z,100711.31
2022-08-05T06:29:23.617Z,100713.56
2022-08-05T06:31:53.131Z,100707.44
2022-08-05T06:34:20.278Z,100712.56
2022-08-05T06:36:57.187Z,100710.53
2022-08-05T06:39:27.919Z,100723.63
2022-08-05T06:42:01.356Z,100721.09
2022-08-05T06:44:34.732Z,100717.88
2022-08-05T06:47:02.222Z,100711.78
2022-08-05T06:50:00.251Z,100718.13
2022-08-05T06:52:37.816Z,100723.88
2022-08-05T06:55:08.960Z,100717.38
2022-08-05T06:57:57.257Z,100719.84
2022-08-05T07:00:25.561Z,100720.56
2022-08-05T07:02:53.587Z,100718.78
2022-08-05T07:05:23.408Z,100721.56
2022-08-05T07:07:59.088Z,100721.38
2022-08-05T07:10:32.290Z,100720.88
2022-08-05T07:13:56.981Z,100713.78
2022-08-05T07:17:56.367Z,100717.09
2022-08-05T07:19:11.064Z,100712.19
2022-08-05T07:22:00.292Z,100710.53
2022-08-05T07:24:28.827Z,100715.59
2022-08-05T07:26:57.238Z,100716.38
2022-08-05T07:30:22.339Z,100708.84
2022-08-05T07:32:12.369Z,100714.72
2022-08-05T07:34:42.401Z,100714.03
2022-08-05T07:37:21.500Z,100706.50
2022-08-05T07:40:26.970Z,100712.56
2022-08-05T07:42:36.399Z,100706.13
2022-08-05T07:45:03.759Z,100710.53
2022-08-05T07:47:42.302Z,100710.13
2022-08-05T07:50:10.189Z,100714.59
2022-08-05T07:52:40.787Z,100704.56
2022-08-05T07:55:16.004Z,100700.31
2022-08-05T07:58:02.768Z,100705.81
2022-08-05T08:00:30.660Z,100697.78
2022-08-05T08:03:14.269Z,100708.16
2022-08-05T08:05:49.464Z,100697.09
2022-08-05T08:08:17.068Z,100694.19
2022-08-05T08:10:49.180Z,100693.63
2022-08-05T08:13:22.095Z,100697.88
2022-08-05T08:16:49.851Z,100694.91
2022-08-05T08:18:43.704Z,100712.63
2022-08-05T08:21:17.875Z,100703.34
2022-08-05T08:24:02.012Z,100701.50
2022-08-05T08:26:32.218Z,100703.56
2022-08-05T08:29:21.960Z,100696.97
2022-08-05T08:31:48.390Z,100701.78
2022-08-05T08:34:16.634Z,100698.09
2022-08-05T08:36:52.492Z,100702.03
2022-08-05T08:39:23.507Z,100696.47
2022-08-05T08:41:59.882Z,100698.56
2022-08-05T08:45:23.211Z,100693.28
2022-08-05T08:47:22.334Z,100696.66
2022-08-05T08:50:30.340Z,100694.69
2022-08-05T08:52:56.794Z,100686.09
2022-08-05T08:55:32.147Z,100693.34
2022-08-05T08:58:12.917Z,100687.69
2022-08-05T09:00:41.680Z,100695.31
2022-08-05T09:03:09.467Z,100690.56
2022-08-05T09:05:38.732Z,100691.28
2022-08-05T09:08:26.716Z,100688.81
2022-08-05T09:10:54.686Z,100689.91
2022-08-05T09:13:23.526Z,100686.31
2022-08-05T09:15:51.249Z,100689.66
2022-08-05T09:18:18.378Z,100688.47
2022-08-05T09:20:45.890Z,100696.69
2022-08-05T09:23:19.748Z,100683.41
2022-08-05T09:26:03.193Z,100693.47
2022-08-05T09:28:34.684Z,100689.09
2022-08-05T09:31:22.068Z,100685.53
2022-08-05T09:33:53.325Z,100692.31
2022-08-05T09:36:27.883Z,100692.19
2022-08-05T09:39:18.254Z,100687.66
2022-08-05T09:41:56.353Z,100693.84
2022-08-05T09:44:34.791Z,100688.69
2022-08-05T09:47:10.442Z,100683.16
2022-08-05T09:50:01.039Z,100678.97
2022-08-05T09:52:33.749Z,100680.75
2022-08-05T09:55:58.237Z,100673.50
2022-08-05T09:57:59.739Z,100679.00
2022-08-05T10:00:30.765Z,100663.88
2022-08-05T10:03:08.535Z,100660.22
2022-08-05T10:05:36.798Z,100652.22
2022-08-05T10:08:34.653Z,100653.53
2022-08-05T10:10:54.166Z,100651.69
2022-08-05T10:13:45.551Z,100653.50
2022-08-05T10:16:28.592Z,100650.91
2022-08-05T10:18:55.803Z,100651.69
2022-08-05T10:21:24.263Z,100647.09
2022-08-05T10:23:59.587Z,100643.97
2022-08-05T10:26:31.703Z,100643.41
2022-08-05T10:29:00.726Z,100644.00
2022-08-05T10:32:53.302Z,100645.25
2022-08-05T10:34:16.792Z,100642.97
2022-08-05T10:36:44.824Z,100638.53
2022-08-05T10:39:24.221Z,100639.84
2022-08-05T10:42:01.924Z,100632.09
2022-08-05T10:44:31.240Z,100635.97
2022-08-05T10:46:58.395Z,100637.78
2022-08-05T10:49:33.498Z,100635.44
2022-08-05T10:52:36.479Z,100638.81
2022-08-05T10:55:05.249Z,100624.84
2022-08-05T10:57:33.894Z,100631.84
2022-08-05T11:00:18.741Z,100627.66
2022-08-05T11:03:24.452Z,100629.22
2022-08-05T11:06:15.283Z,100619.19
2022-08-05T11:09:02.339Z,100626.16
2022-08-05T11:11:44.563Z,100621.00
2022-08-05T11:17:57.101Z,100626.66
2022-08-05T11:20:34.914Z,100625.38
2022-08-05T11:23:22.070Z,100624.56
2022-08-05T11:26:06.279Z,100624.56
2022-08-05T11:28:36.367Z,100617.53
2022-08-05T11:31:06.149Z,100613.28
2022-08-05T11:33:46.206Z,100610.72
2022-08-05T11:36:34.221Z,100609.41
2022-08-05T11:39:06.200Z,100611.53
2022-08-05T11:42:00.835Z,100608.66
2022-08-05T11:44:53.236Z,100613.41
2022-08-05T11:47:15.301Z,100616.41
2022-08-05T11:49:49.723Z,100610.50
2022-08-05T11:52:29.198Z,100605.88
2022-08-05T11:54:58.176Z,100602.22
2022-08-05T11:57:29.283Z,100598.00
2022-08-05T11:59:58.182Z,100597.56
2022-08-05T12:02:33.363Z,100596.53
2022-08-05T12:05:07.292Z,100603.66
2022-08-05T12:08:09.491Z,100593.19
2022-08-05T12:10:43.549Z,100589.38
2022-08-05T12:13:27.703Z,100589.53
2022-08-05T12:16:14.829Z,100594.31
2022-08-05T12:18:52.150Z,100588.31
2022-08-05T12:21:23.795Z,100583.06
2022-08-05T12:23:51.938Z,100587.81
2022-08-05T12:26:19.076Z,100584.50
2022-08-05T12:28:46.450Z,100588.31
2022-08-05T12:31:23.139Z,100578.81
2022-08-05T12:34:00.292Z,100579.19
2022-08-05T12:36:29.047Z,100578.44
2022-08-05T12:38:57.289Z,100570.84
2022-08-05T12:41:34.175Z,100576.56
2022-08-05T12:44:33.322Z,100562.34
2022-08-05T12:47:02.074Z,100564.66
2022-08-05T12:50:02.056Z,100560.75
2022-08-05T12:52:35.384Z,100567.53
2022-08-05T12:55:22.092Z,100552.00
2022-08-05T12:58:49.663Z,100542.66
2022-08-05T13:02:00.555Z,100543.22
2022-08-05T13:03:32.517Z,100540.38
2022-08-05T13:06:02.762Z,100537.31
2022-08-05T13:08:30.293Z,100534.06
2022-08-05T13:11:01.207Z,100538.72
2022-08-05T13:14:06.133Z,100536.28
2022-08-05T13:16:17.333Z,100530.25
2022-08-05T13:18:51.372Z,100522.44
2022-08-05T13:21:18.482Z,100519.28
2022-08-05T13:23:50.708Z,100520.69
2022-08-05T13:26:18.188Z,100530.56
2022-08-05T13:28:45.304Z,100519.03
2022-08-05T13:31:14.368Z,100519.88
2022-08-05T13:34:22.600Z,100513.25
2022-08-05T13:36:29.531Z,100504.38
2022-08-05T13:38:56.716Z,100498.34
2022-08-05T13:41:35.105Z,100503.56
2022-08-05T13:44:05.181Z,100501.88
2022-08-05T13:46:44.229Z,100499.47
2022-08-05T13:49:20.446Z,100491.41
2022-08-05T13:51:48.575Z,100492.19
2022-08-05T13:54:16.498Z,100485.22
2022-08-05T13:56:50.889Z,100482.16
2022-08-05T13:59:24.032Z,100491.00
2022-08-05T14:01:57.632Z,100481.44
2022-08-05T14:04:50.211Z,100478.22
2022-08-05T14:07:59.535Z,100473.22
2022-08-05T14:10:19.048Z,100468.59
2022-08-05T14:12:55.170Z,100472.41
2022-08-05T14:16:04.816Z,100463.84
2022-08-05T14:18:14.600Z,100464.69
2022-08-05T14:20:47.261Z,100464.16
2022-08-05T14:23:23.470Z,100457.16
2022-08-05T14:25:54.101Z,100461.00
2022-08-05T14:28:26.363Z,100450.66
2022-08-05T14:30:54.974Z,100448.38
2022-08-05T14:33:23.890Z,100440.56
2022-08-05T14:35:54.289Z,100444.78
2022-08-05T14:38:33.126Z,100441.66
2022-08-05T14:41:05.974Z,100431.09
2022-08-05T14:43:59.106Z,100448.41
2022-08-05T14:46:29.156Z,100441.19
2022-08-05T14:49:06.976Z,100434.22
2022-08-05T14:51:38.199Z,100436.84
2022-08-05T14:54:27.945Z,100435.28
2022-08-05T14:56:55.710Z,100427.03
2022-08-05T14:59:23.382Z,100432.94
2022-08-05T15:01:51.357Z,100435.56
2022-08-05T15:04:22.331Z,100440.22
2022-08-05T15:06:50.512Z,100428.59
2022-08-05T15:09:53.955Z,100427.06
2022-08-05T15:12:09.045Z,100423.69
2022-08-05T15:14:48.467Z,100429.91
2022-08-05T15:17:47.753Z,100412.59
2022-08-05T15:20:06.072Z,100413.34
2022-08-05T15:22:33.414Z,100407.66
2022-08-05T15:25:00.732Z,100404.84
2022-08-05T15:27:42.854Z,100408.47
2022-08-05T15:30:14.173Z,100407.16
2022-08-05T15:32:43.662Z,100396.84
2022-08-05T15:35:12.464Z,100388.28
2022-08-05T15:38:32.840Z,100387.78
2022-08-05T15:40:59.937Z,100388.28
2022-08-05T15:43:20.051Z,100392.13
2022-08-05T15:46:00.233Z,100396.56
2022-08-05T15:48:28.380Z,100384.97
2022-08-05T15:50:56.691Z,100389.34
2022-08-05T15:53:26.320Z,100386.25
2022-08-05T15:56:02.466Z,100374.13
2022-08-05T15:58:36.907Z,100380.59
2022-08-05T16:01:16.733Z,100380.59
2022-08-05T16:03:48.295Z,100369.94
2022-08-05T16:06:20.131Z,100378.97
2022-08-05T16:08:50.358Z,100370.44
2022-08-05T16:11:18.639Z,100375.34
2022-08-05T16:13:48.483Z,100373.00
2022-08-05T16:16:25.127Z,100372.22
2022-08-05T16:18:53.118Z,100367.34
2022-08-05T16:21:20.548Z,100375.28
2022-08-05T16:24:12.802Z,100370.16
2022-08-05T16:26:51.586Z,100375.03
2022-08-05T16:29:20.123Z,100378.44
2022-08-05T16:31:57.084Z,100376.34
2022-08-05T16:34:25.474Z,100385.09
2022-08-05T16:36:53.983Z,100386.69
2022-08-05T16:39:21.467Z,100391.31
2022-08-05T16:42:14.007Z,100394.13
2022-08-05T16:44:44.308Z,100390.66
2022-08-05T16:47:28.849Z,100393.31
2022-08-05T16:50:06.863Z,100401.84
2022-08-05T16:52:35.759Z,100407.19
2022-08-05T16:55:04.333Z,100402.59
2022-08-05T16:57:53.097Z,100402.84
2022-08-05T17:00:26.236Z,100409.03
2022-08-05T17:03:02.888Z,100415.41
2022-08-05T17:05:31.262Z,100415.81
2022-08-05T17:07:58.462Z,100414.72
2022-08-05T17:10:26.441Z,100419.63
2022-08-05T17:13:00.302Z,100420.16
2022-08-05T17:15:29.518Z,100417.06
2022-08-05T17:18:17.468Z,100418.66
2022-08-05T17:20:46.246Z,100424.72
2022-08-05T17:24:03.181Z,100416.94
2022-08-05T17:26:00.703Z,100418.94
2022-08-05T17:28:29.442Z,100427.47
2022-08-05T17:30:57.147Z,100419.47
2022-08-05T17:33:25.660Z,100418.38
2022-08-05T17:36:08.050Z,100425.09
2022-08-05T17:38:37.328Z,100418.16
2022-08-05T17:41:11.611Z,100413.22
2022-08-05T17:43:54.917Z,100414.16
2022-08-05T17:46:23.820Z,100426.47
2022-08-05T17:48:53.898Z,100420.13
2022-08-05T17:51:21.015Z,100428.56
2022-08-05T17:53:50.869Z,100429.97
2022-08-05T17:56:22.758Z,100424.66
2022-08-05T17:58:51.105Z,100427.28
2022-08-05T18:01:18.633Z,100423.63
2022-08-05T18:03:58.407Z,100430.19
2022-08-05T18:06:31.130Z,100430.34
2022-08-05T18:08:58.845Z,100434.59
2022-08-05T18:11:32.598Z,100445.56
2022-08-05T18:14:03.186Z,100440.97
2022-08-05T18:16:31.787Z,100442.19
2022-08-05T18:18:59.003Z,100433.06
2022-08-05T18:22:08.349Z,100443.19
2022-08-05T18:24:16.705Z,100439.59
2022-08-05T18:26:44.029Z,100443.63
2022-08-05T18:29:13.068Z,100444.47
2022-08-05T18:31:44.670Z,100447.53
2022-08-05T18:34:13.154Z,100450.53
2022-08-05T18:36:43.649Z,100449.78
2022-08-05T18:39:41.962Z,100456.38
2022-08-05T18:42:06.155Z,100454.56
2022-08-05T18:44:49.247Z,100460.41
2022-08-05T18:47:22.902Z,100458.16
2022-08-05T18:50:12.664Z,100458.63
2022-08-05T18:52:50.562Z,100458.28
2022-08-05T18:55:19.383Z,100462.53
2022-08-05T18:57:53.118Z,100465.78
2022-08-05T19:00:25.055Z,100462.63
2022-08-05T19:02:54.589Z,100468.66
2022-08-05T19:06:11.945Z,100470.28
2022-08-05T19:08:13.385Z,100470.59
2022-08-05T19:10:42.550Z,100474.56
2022-08-05T19:13:12.275Z,100484.88
2022-08-05T19:15:59.407Z,100489.66
2022-08-05T19:18:30.622Z,100486.03
2022-08-05T19:20:59.518Z,100495.72
2022-08-05T19:24:06.997Z,100507.00
2022-08-05T19:26:16.456Z,100508.75
2022-08-05T19:28:43.840Z,100515.56
2022-08-05T19:31:13.345Z,100516.06
2022-08-05T19:33:48.339Z,100519.09
2022-08-05T19:36:29.325Z,100531.66
2022-08-05T19:39:00.638Z,100530.97
2022-08-05T19:41:58.033Z,100539.81
2022-08-05T19:44:16.948Z,100545.84
2022-08-05T19:46:45.813Z,100550.59
2022-08-05T19:49:17.161Z,100566.53
2022-08-05T19:52:08.238Z,100569.78
2022-08-05T19:54:35.447Z,100569.44
2022-08-05T19:57:08.410Z,100567.97
2022-08-05T19:59:54.764Z,100562.34
2022-08-05T20:02:26.031Z,100567.25
2022-08-05T20:04:54.799Z,100569.44
2022-08-05T20:07:45.856Z,100578.34
2022-08-05T20:10:13.214Z,100581.44
2022-08-05T20:12:48.196Z,100578.50
2022-08-05T20:15:47.932Z,100582.72
2022-08-05T20:18:10.819Z,100584.28
2022-08-05T20:20:55.017Z,100580.97
2022-08-05T20:23:39.749Z,100591.91
2022-08-05T20:26:16.248Z,100590.25
2022-08-05T20:28:48.662Z,100595.69
2022-08-05T20:31:17.034Z,100598.22
2022-08-05T20:33:45.208Z,100598.06
2022-08-05T20:36:16.472Z,100604.78
2022-08-05T20:38:53.275Z,100606.00
2022-08-05T20:41:23.959Z,100604.16
2022-08-05T20:43:59.080Z,100609.44
2022-08-05T20:46:30.262Z,100616.63
2022-08-05T20:48:59.069Z,100619.19
2022-08-05T20:51:26.643Z,100614.84
2022-08-05T20:53:55.291Z,100632.50
2022-08-05T20:56:29.018Z,100628.28
2022-08-05T20:58:59.965Z,100639.41
2022-08-05T21:01:41.883Z,100636.72
2022-08-05T21:04:10.651Z,100638.13
2022-08-05T21:06:45.916Z,100634.06
2022-08-05T21:09:14.324Z,100635.94
2022-08-05T21:12:10.832Z,100631.09
2022-08-05T21:14:32.038Z,100630.63
2022-08-05T21:17:03.158Z,100626.09
2022-08-05T21:19:46.807Z,100634.22
2022-08-05T21:22:17.656Z,100629.22
2022-08-05T21:24:48.921Z,100636.72
2022-08-05T21:27:20.574Z,100642.13
2022-08-05T21:29:54.168Z,100641.81
2022-08-05T21:32:27.201Z,100633.22
2022-08-05T21:35:06.704Z,100640.03
2022-08-05T21:37:41.292Z,100647.50
2022-08-05T21:40:13.625Z,100650.00
2022-08-05T21:42:44.467Z,100664.97
2022-08-05T21:45:13.937Z,100661.59
2022-08-05T21:47:56.873Z,100659.34
2022-08-05T21:50:25.859Z,100662.25
2022-08-05T21:52:53.572Z,100651.81
2022-08-05T21:56:01.110Z,100661.53
2022-08-05T21:58:12.907Z,100657.63
2022-08-05T22:00:40.318Z,100656.19
2022-08-05T22:03:15.279Z,100654.16
2022-08-05T22:05:48.642Z,100660.13
2022-08-05T22:08:22.569Z,100659.34
2022-08-05T22:10:51.751Z,100656.13
2022-08-05T22:14:19.953Z,100649.72
2022-08-05T22:16:32.257Z,100643.91
2022-08-05T22:18:58.771Z,100645.47
2022-08-05T22:21:26.494Z,100656.25
2022-08-05T22:24:13.227Z,100652.63
2022-08-05T22:27:19.136Z,100663.75
2022-08-05T22:29:46.329Z,100659.19
2022-08-05T22:32:17.478Z,100655.50
2022-08-05T22:34:45.800Z,100646.13
2022-08-05T22:37:14.538Z,100647.63
2022-08-05T22:39:42.342Z,100644.38
2022-08-05T22:42:15.509Z,100654.19
2022-08-05T22:44:56.439Z,100644.63
2022-08-05T22:47:29.406Z,100647.09
2022-08-05T22:50:19.733Z,100643.25
2022-08-05T22:52:47.493Z,100638.72
2022-08-05T22:55:19.571Z,100639.84
2022-08-05T22:57:48.850Z,100632.56
2022-08-05T23:00:18.391Z,100629.16
2022-08-05T23:02:48.749Z,100631.00
2022-08-05T23:05:16.153Z,100634.22
2022-08-05T23:07:45.420Z,100631.94
2022-08-05T23:10:20.149Z,100625.50
2022-08-05T23:12:54.897Z,100621.34
2022-08-05T23:15:27.042Z,100616.38
2022-08-05T23:18:01.818Z,100613.38
2022-08-05T23:20:31.514Z,100615.66
2022-08-05T23:22:59.517Z,100602.88
2022-08-05T23:25:53.470Z,100607.59
2022-08-05T23:28:15.959Z,100604.19
2022-08-05T23:30:53.608Z,100603.28
2022-08-05T23:33:26.438Z,100608.63
2022-08-05T23:36:13.617Z,100605.16
2022-08-05T23:38:41.673Z,100600.59
2022-08-05T23:41:10.486Z,100601.38
2022-08-05T23:44:03.580Z,100598.56
2022-08-05T23:46:25.127Z,100598.13
2022-08-05T23:49:00.919Z,100591.38
2022-08-05T23:51:53.560Z,100591.56
2022-08-05T23:54:29.871Z,100600.41
2022-08-05T23:57:03.930Z,100585.59
